Time;durP1;ratioP1;P1;durP2;ratioP2;P2;SDS_P1;SDS_P2;PMS_P1;PMS_P2;Temp;Humidity;BMP_temperature;BMP_pressure;BME280_temperature;BME280_humidity;BME280_pressure;Samples;Min_cycle;Max_cycle;Signal;HPM_P1;HPM_P2
2022/04/27 00:02:16;;;;;;;7.70;6.50;;;;;;100791.27;;;;107133;1274;67698;-37
2022/04/27 00:04:47;;;;;;;8.00;6.10;;;;;;100793.80;;;;107189;1274;64725;-25
2022/04/27 00:07:16;;;;;;;8.30;6.80;;;;;;100790.27;;;;107206;1274;65486;-30
2022/04/27 00:09:49;;;;;;;8.00;6.20;;;;;;100793.42;;;;107208;1274;64830;-31
2022/04/27 00:12:20;;;;;;;7.90;6.60;;;;;;100793.36;;;;107233;1274;63994;-31
2022/04/27 00:14:55;;;;;;;8.30;6.60;;;;;;100792.88;;;;107165;1275;66088;-32
2022/04/27 00:17:26;;;;;;;8.20;6.50;;;;;;100795.27;;;;107082;1274;64981;-27
2022/04/27 00:19:56;;;;;;;8.50;6.50;;;;;;100796.35;;;;107177;1274;64750;-27
2022/04/27 00:22:25;;;;;;;9.00;6.80;;;;;;100797.45;;;;107181;1274;64880;-34
2022/04/27 00:25:02;;;;;;;7.80;6.30;;;;;;100797.20;;;;107053;1277;64868;-33
2022/04/27 00:27:32;;;;;;;9.10;6.30;;;;;;100798.66;;;;107197;1274;65571;-31
2022/04/27 00:30:02;;;;;;;8.70;6.30;;;;;;100802.36;;;;107137;1274;64828;-31
2022/04/27 00:32:30;;;;;;;8.10;6.90;;;;;;100803.17;;;;107147;1274;64943;-31
2022/04/27 00:35:03;;;;;;;7.90;6.60;;;;;;100802.41;;;;107105;1277;66054;-31
2022/04/27 00:37:33;;;;;;;8.10;6.70;;;;;;100802.42;;;;107249;1274;64879;-26
2022/04/27 00:40:04;;;;;;;8.50;6.70;;;;;;100801.64;;;;107200;1274;67632;-26
2022/04/27 00:42:35;;;;;;;8.30;6.70;;;;;;100802.45;;;;107144;1274;65381;-31
2022/04/27 00:45:05;;;;;;;7.70;6.20;;;;;;100803.59;;;;107113;1277;64763;-31
2022/04/27 00:47:33;;;;;;;7.80;6.30;;;;;;100802.91;;;;107228;1274;64844;-26
2022/04/27 00:50:10;;;;;;;9.00;6.50;;;;;;100807.34;;;;107195;1274;66252;-26
2022/04/27 00:52:38;;;;;;;8.00;6.40;;;;;;100807.84;;;;107180;1274;67630;-26
2022/04/27 00:55:10;;;;;;;7.80;6.70;;;;;;100807.71;;;;107227;1274;64886;-28
2022/04/27 00:57:46;;;;;;;7.50;6.40;;;;;;100808.38;;;;107175;1274;64796;-32
2022/04/27 01:00:20;;;;;;;7.50;6.60;;;;;;100807.81;;;;107157;1274;64850;-31
2022/04/27 01:02:50;;;;;;;8.50;7.10;;;;;;100808.10;;;;107189;1274;64847;-32
2022/04/27 01:05:24;;;;;;;8.60;7.00;;;;;;100810.05;;;;107195;1274;65953;-32
2022/04/27 01:07:54;;;;;;;7.80;6.50;;;;;;100808.45;;;;107122;1274;64722;-26
2022/04/27 01:10:28;;;;;;;8.10;6.40;;;;;;100810.83;;;;107093;1274;64778;-26
2022/04/27 01:12:58;;;;;;;7.40;6.20;;;;;;100811.69;;;;107191;1274;64747;-26
2022/04/27 01:16:02;;;;;;;8.50;6.50;;;;;;100814.83;;;;107162;1274;64906;-29
2022/04/27 01:18:34;;;;;;;8.30;7.10;;;;;;100813.12;;;;107184;1274;67430;-32
2022/04/27 01:21:10;;;;;;;8.30;7.20;;;;;;100816.39;;;;107148;1274;64880;-27
2022/04/27 01:23:40;;;;;;;8.10;6.90;;;;;;100813.35;;;;107197;1274;64792;-27
2022/04/27 01:26:09;;;;;;;7.50;6.50;;;;;;100814.33;;;;107201;1274;64772;-31
2022/04/27 01:28:38;;;;;;;8.40;7.00;;;;;;100818.29;;;;107195;1274;64846;-27
2022/04/27 01:31:09;;;;;;;7.60;6.40;;;;;;100820.08;;;;107236;1274;66465;-27
2022/04/27 01:33:38;;;;;;;7.50;6.70;;;;;;100821.88;;;;107192;1274;64995;-27
2022/04/27 01:36:17;;;;;;;8.00;6.50;;;;;;100822.57;;;;107215;1274;64830;-38
2022/04/27 01:38:45;;;;;;;7.70;6.40;;;;;;100822.77;;;;107193;1274;64844;-32
2022/04/27 01:41:14;;;;;;;7.70;6.70;;;;;;100828.05;;;;107261;1274;63563;-32
2022/04/27 01:43:44;;;;;;;8.20;6.70;;;;;;100829.29;;;;107146;1274;66061;-32
2022/04/27 01:46:12;;;;;;;7.70;6.80;;;;;;100830.98;;;;107226;1274;64747;-26
2022/04/27 01:48:45;;;;;;;8.60;7.10;;;;;;100830.01;;;;107203;1274;64767;-26
2022/04/27 01:51:18;;;;;;;7.30;6.30;;;;;;100831.84;;;;107202;1274;64734;-26
2022/04/27 01:56:39;;;;;;;7.60;6.40;;;;;;100837.70;;;;107139;1277;67730;-32
2022/04/27 01:59:12;;;;;;;8.30;7.10;;;;;;100837.47;;;;107134;1275;64744;-32
2022/04/27 02:01:41;;;;;;;7.70;6.60;;;;;;100836.05;;;;107145;1274;64910;-27
2022/04/27 02:04:09;;;;;;;7.60;6.20;;;;;;100837.05;;;;107203;1274;64719;-26
2022/04/27 02:06:37;;;;;;;8.40;6.80;;;;;;100838.48;;;;107222;1274;64897;-32
2022/04/27 02:09:09;;;;;;;7.30;6.50;;;;;;100839.15;;;;107201;1274;65922;-40
2022/04/27 02:11:38;;;;;;;8.50;6.70;;;;;;100844.60;;;;107228;1274;64864;-31
2022/04/27 02:14:10;;;;;;;7.90;6.40;;;;;;100844.87;;;;107200;1274;64730;-32
2022/04/27 02:16:38;;;;;;;8.00;6.60;;;;;;100844.89;;;;107163;1274;64988;-30
2022/04/27 02:19:08;;;;;;;8.20;6.90;;;;;;100847.17;;;;107249;1274;64776;-34
2022/04/27 02:21:36;;;;;;;7.50;6.70;;;;;;100849.49;;;;107283;1274;66092;-32
2022/04/27 02:24:06;;;;;;;7.80;6.80;;;;;;100847.59;;;;107133;1275;65004;-32
2022/04/27 02:26:34;;;;;;;8.60;6.50;;;;;;100847.55;;;;107285;1274;64865;-27
2022/04/27 02:29:03;;;;;;;7.80;6.60;;;;;;100850.02;;;;107170;1274;64748;-26
2022/04/27 02:31:37;;;;;;;7.60;6.30;;;;;;100848.79;;;;107175;1274;64881;-32
2022/04/27 02:34:05;;;;;;;7.90;6.50;;;;;;100848.39;;;;107121;1277;66091;-32
2022/04/27 02:36:34;;;;;;;7.50;6.60;;;;;;100848.91;;;;107288;1274;64884;-35
2022/04/27 02:39:03;;;;;;;8.00;6.60;;;;;;100846.52;;;;107088;1277;64955;-33
2022/04/27 02:41:34;;;;;;;8.30;6.70;;;;;;100845.02;;;;107308;1272;64978;-32
2022/04/27 02:44:08;;;;;;;7.60;6.50;;;;;;100843.74;;;;107232;1274;64974;-33
2022/04/27 02:46:39;;;;;;;7.80;6.60;;;;;;100846.25;;;;107143;1277;66428;-27
2022/04/27 02:51:53;;;;;;;7.90;6.70;;;;;;100846.11;;;;107236;1274;64763;-27
2022/04/27 02:54:26;;;;;;;8.60;7.10;;;;;;100844.86;;;;107187;1274;64711;-27
2022/04/27 02:56:55;;;;;;;8.20;6.40;;;;;;100846.76;;;;107295;1274;66064;-26
2022/04/27 02:59:25;;;;;;;8.40;6.90;;;;;;100847.86;;;;107216;1274;66465;-27
2022/04/27 03:01:57;;;;;;;8.20;7.00;;;;;;100850.39;;;;107139;1275;64734;-27
2022/04/27 03:04:28;;;;;;;8.40;6.70;;;;;;100851.96;;;;107247;1274;64843;-26
2022/04/27 03:06:56;;;;;;;7.80;6.80;;;;;;100854.02;;;;107272;1274;64885;-32
2022/04/27 03:09:26;;;;;;;9.80;7.30;;;;;;100857.80;;;;107181;1274;64967;-32
2022/04/27 03:11:57;;;;;;;7.70;6.70;;;;;;100859.59;;;;107184;1274;66122;-32
2022/04/27 03:14:25;;;;;;;7.70;6.80;;;;;;100860.23;;;;107236;1274;64747;-33
2022/04/27 03:16:52;;;;;;;9.00;7.00;;;;;;100863.51;;;;107233;1274;65013;-31
2022/04/27 03:19:24;;;;;;;7.90;6.70;;;;;;100863.14;;;;107155;1274;64949;-32
2022/04/27 03:21:54;;;;;;;8.20;6.90;;;;;;100863.88;;;;107218;1275;64772;-26
2022/04/27 03:24:22;;;;;;;8.50;6.90;;;;;;100866.33;;;;107252;1274;66699;-27
2022/04/27 03:26:52;;;;;;;7.70;6.50;;;;;;100871.77;;;;107137;1274;64699;-31
2022/04/27 03:29:20;;;;;;;8.00;7.10;;;;;;100875.20;;;;107242;1274;64804;-32
2022/04/27 03:31:50;;;;;;;8.20;7.00;;;;;;100878.30;;;;107266;1274;64748;-27
2022/04/27 03:34:20;;;;;;;8.80;7.20;;;;;;100880.23;;;;107223;1274;64728;-27
2022/04/27 03:36:50;;;;;;;7.70;6.80;;;;;;100880.98;;;;107282;1274;65206;-32
2022/04/27 03:39:20;;;;;;;7.90;6.50;;;;;;100883.73;;;;107237;1274;64891;-32
2022/04/27 03:41:47;;;;;;;7.40;6.60;;;;;;100885.90;;;;107232;1274;64770;-31
2022/04/27 03:44:14;;;;;;;7.80;6.70;;;;;;100885.24;;;;107233;1273;64856;-32
2022/04/27 03:46:42;;;;;;;8.70;6.90;;;;;;100888.91;;;;107261;1274;63578;-28
2022/04/27 03:49:12;;;;;;;8.80;7.30;;;;;;100891.52;;;;107232;1274;66393;-27
2022/04/27 03:51:42;;;;;;;8.40;6.60;;;;;;100891.14;;;;107263;1274;64597;-32
2022/04/27 03:54:11;;;;;;;8.40;6.50;;;;;;100898.16;;;;107218;1274;64869;-32
2022/04/27 03:56:39;;;;;;;8.20;6.90;;;;;;100901.05;;;;107231;1274;64894;-32
2022/04/27 03:59:06;;;;;;;7.70;6.60;;;;;;100902.05;;;;107273;1274;64841;-32
2022/04/27 04:01:34;;;;;;;7.30;6.60;;;;;;100909.70;;;;107254;1274;66226;-26
2022/04/27 04:04:01;;;;;;;7.60;6.70;;;;;;100914.46;;;;107238;1273;64876;-27
2022/04/27 04:06:32;;;;;;;8.50;6.80;;;;;;100916.87;;;;107233;1274;64855;-32
2022/04/27 04:08:59;;;;;;;8.10;6.70;;;;;;100920.04;;;;107246;1275;64849;-41
2022/04/27 04:11:27;;;;;;;9.20;7.40;;;;;;100922.90;;;;107248;1274;64776;-27
2022/04/27 04:13:54;;;;;;;8.20;6.60;;;;;;100925.82;;;;107253;1274;65363;-26
2022/04/27 04:16:21;;;;;;;7.50;6.50;;;;;;100928.34;;;;107044;1274;289116;-26
2022/04/27 04:18:48;;;;;;;7.70;6.40;;;;;;100931.98;;;;107237;1274;64754;-26
2022/04/27 04:21:15;;;;;;;8.50;6.80;;;;;;100937.44;;;;107143;1274;64897;-27
2022/04/27 04:23:43;;;;;;;8.40;6.70;;;;;;100938.04;;;;107246;1274;64685;-26
2022/04/27 04:28:58;;;;;;;7.40;6.50;;;;;;100936.97;;;;107259;1274;65004;-32
2022/04/27 04:31:26;;;;;;;8.30;6.70;;;;;;100937.54;;;;107231;1274;64732;-33
2022/04/27 04:33:53;;;;;;;8.10;6.40;;;;;;100938.69;;;;107211;1274;65246;-26
2022/04/27 04:36:20;;;;;;;7.80;6.50;;;;;;100940.13;;;;107293;1274;65183;-27
2022/04/27 04:38:47;;;;;;;8.70;6.60;;;;;;100945.64;;;;107262;1274;64956;-26
2022/04/27 04:41:14;;;;;;;8.30;6.60;;;;;;100950.91;;;;107163;1274;64984;-26
2022/04/27 04:43:41;;;;;;;8.70;6.80;;;;;;100955.52;;;;107244;1274;64878;-25
2022/04/27 04:46:09;;;;;;;7.30;6.20;;;;;;100955.67;;;;107179;1274;65305;-27
2022/04/27 04:48:36;;;;;;;7.20;6.20;;;;;;100957.30;;;;107268;1274;64753;-26
2022/04/27 04:51:03;;;;;;;8.60;6.50;;;;;;100964.27;;;;107272;1274;66407;-32
2022/04/27 04:53:33;;;;;;;7.60;6.50;;;;;;100963.74;;;;107238;1273;64926;-43
2022/04/27 04:56:03;;;;;;;7.10;6.30;;;;;;100963.32;;;;107250;1274;64808;-27
2022/04/27 04:58:30;;;;;;;7.70;6.40;;;;;;100962.66;;;;107244;1274;65007;-27
2022/04/27 05:01:02;;;;;;;7.00;6.10;;;;;;100963.98;;;;107146;1274;64770;-27
2022/04/27 05:03:30;;;;;;;9.20;6.70;;;;;;100967.65;;;;107250;1274;65226;-26
2022/04/27 05:05:58;;;;;;;7.30;6.30;;;;;;100970.15;;;;107269;1274;64890;-32
2022/04/27 05:08:28;;;;;;;8.60;6.80;;;;;;100975.55;;;;107224;1274;64855;-32
2022/04/27 05:10:55;;;;;;;8.60;6.70;;;;;;100979.29;;;;107265;1274;64846;-26
2022/04/27 05:13:23;;;;;;;8.00;6.40;;;;;;100982.43;;;;107186;1274;64805;-26
2022/04/27 05:15:53;;;;;;;7.50;6.10;;;;;;100985.67;;;;107290;1274;64977;-26
2022/04/27 05:18:23;;;;;;;8.00;6.30;;;;;;100986.69;;;;107241;1274;64955;-26
2022/04/27 05:20:50;;;;;;;7.20;6.30;;;;;;100989.92;;;;107247;1274;64782;-38
2022/04/27 05:23:17;;;;;;;8.30;6.40;;;;;;100993.27;;;;107223;1274;64906;-26
2022/04/27 05:25:47;;;;;;;7.20;6.00;;;;;;100994.10;;;;107294;1274;65048;-30
2022/04/27 05:28:17;;;;;;;7.60;6.40;;;;;;100994.96;;;;107250;1274;65895;-32
2022/04/27 05:33:41;;;;;;;8.00;6.10;;;;;;101001.52;;;;107113;1274;64823;-32
2022/04/27 05:36:11;;;;;;;7.70;6.60;;;;;;101006.28;;;;107266;1274;64894;-31
2022/04/27 05:38:39;;;;;;;7.50;6.20;;;;;;101005.94;;;;107285;1274;64879;-32
2022/04/27 05:41:09;;;;;;;8.20;6.10;;;;;;101012.46;;;;107288;1274;66165;-25
2022/04/27 05:43:36;;;;;;;8.10;6.70;;;;;;101017.85;;;;107249;1273;64731;-26
2022/04/27 05:46:08;;;;;;;8.40;5.90;;;;;;101021.00;;;;107293;1274;64866;-26
2022/04/27 05:48:35;;;;;;;7.30;5.60;;;;;;101022.64;;;;107252;1274;64850;-26
2022/04/27 05:51:06;;;;;;;7.70;5.80;;;;;;101025.39;;;;107303;1274;64782;-31
2022/04/27 05:53:33;;;;;;;7.70;6.20;;;;;;101030.23;;;;107182;1274;64990;-31
2022/04/27 05:56:00;;;;;;;8.30;6.10;;;;;;101031.04;;;;107248;1274;64740;-30
2022/04/27 05:58:30;;;;;;;10.20;7.20;;;;;;101031.60;;;;107113;1274;64789;-31
2022/04/27 06:01:00;;;;;;;7.10;6.20;;;;;;101035.01;;;;107255;1274;64832;-26
2022/04/27 06:03:30;;;;;;;8.70;6.70;;;;;;101040.08;;;;107275;1274;64766;-26
2022/04/27 06:05:58;;;;;;;8.10;6.30;;;;;;101042.89;;;;107255;1274;67538;-26
2022/04/27 06:08:25;;;;;;;8.40;5.90;;;;;;101045.88;;;;107259;1274;65201;-26
2022/04/27 06:10:55;;;;;;;8.20;6.30;;;;;;101046.82;;;;107249;1274;64788;-27
2022/04/27 06:13:26;;;;;;;8.50;6.40;;;;;;101048.40;;;;107242;1274;64833;-26
2022/04/27 06:15:57;;;;;;;8.20;5.80;;;;;;101049.02;;;;107281;1274;64990;-26
2022/04/27 06:18:27;;;;;;;10.00;6.40;;;;;;101050.00;;;;107176;1274;64911;-26
2022/04/27 06:20:56;;;;;;;8.90;6.50;;;;;;101049.72;;;;107282;1274;64958;-30
2022/04/27 06:23:26;;;;;;;8.40;6.10;;;;;;101054.14;;;;107277;1274;64740;-31
2022/04/27 06:25:54;;;;;;;8.40;6.30;;;;;;101053.91;;;;107245;1274;64971;-26
2022/04/27 06:28:21;;;;;;;9.80;6.20;;;;;;101057.42;;;;107261;1273;64862;-26
2022/04/27 06:30:51;;;;;;;9.40;6.10;;;;;;101058.79;;;;107311;1274;66469;-26
2022/04/27 06:33:21;;;;;;;8.50;6.40;;;;;;101060.01;;;;107243;1274;64783;-26
2022/04/27 06:35:50;;;;;;;8.70;6.20;;;;;;101063.15;;;;107276;1274;64895;-31
2022/04/27 06:38:21;;;;;;;9.10;6.10;;;;;;101062.63;;;;107263;1274;64763;-31
2022/04/27 06:40:51;;;;;;;9.40;6.40;;;;;;101063.41;;;;107253;1274;64052;-30
2022/04/27 06:43:18;;;;;;;9.90;6.40;;;;;;101065.54;;;;107160;1274;67346;-30
2022/04/27 06:45:45;;;;;;;10.40;6.80;;;;;;101065.64;;;;107177;1273;64886;-38
2022/04/27 06:48:13;;;;;;;8.70;6.50;;;;;;101072.69;;;;107192;1274;64783;-30
2022/04/27 06:50:40;;;;;;;9.20;6.00;;;;;;101068.01;;;;107207;1274;65089;-30
2022/04/27 06:53:09;;;;;;;9.70;6.30;;;;;;101067.55;;;;107199;1274;64910;-30
2022/04/27 06:55:37;;;;;;;9.10;6.30;;;;;;101067.75;;;;107224;1274;67418;-27
2022/04/27 06:58:04;;;;;;;8.20;5.70;;;;;;101066.63;;;;107307;1271;64895;-26
2022/04/27 07:00:32;;;;;;;9.30;6.50;;;;;;101063.39;;;;107239;1274;64810;-25
2022/04/27 07:02:59;;;;;;;8.40;5.90;;;;;;101066.34;;;;107168;1274;64887;-26
2022/04/27 07:05:27;;;;;;;8.50;6.10;;;;;;101070.61;;;;107245;1274;64753;-26
2022/04/27 07:07:54;;;;;;;9.30;6.40;;;;;;101071.31;;;;107131;1274;66457;-25
2022/04/27 07:10:25;;;;;;;7.70;5.80;;;;;;101071.21;;;;107235;1271;64872;-26
2022/04/27 07:12:52;;;;;;;8.50;6.10;;;;;;101072.83;;;;107238;1271;64811;-29
2022/04/27 07:15:20;;;;;;;8.50;6.00;;;;;;101072.52;;;;107141;1274;64978;-31
2022/04/27 07:17:47;;;;;;;9.20;6.20;;;;;;101071.44;;;;107276;1274;64834;-27
2022/04/27 07:20:15;;;;;;;8.80;5.90;;;;;;101073.35;;;;107260;1274;65613;-25
2022/04/27 07:22:42;;;;;;;9.90;6.10;;;;;;101076.27;;;;107211;1274;64996;-28
2022/04/27 07:25:09;;;;;;;7.80;5.40;;;;;;101077.73;;;;107208;1274;66058;-31
2022/04/27 07:27:37;;;;;;;9.10;5.30;;;;;;101079.25;;;;107060;1274;64767;-25
2022/04/27 07:30:06;;;;;;;8.80;5.90;;;;;;101086.27;;;;107287;1274;64799;-26
2022/04/27 07:32:33;;;;;;;8.80;5.80;;;;;;101087.48;;;;107289;1273;66057;-26
2022/04/27 07:35:00;;;;;;;7.80;5.70;;;;;;101088.53;;;;107212;1273;64975;-30
2022/04/27 07:37:27;;;;;;;8.00;5.70;;;;;;101091.09;;;;107133;1274;64916;-31
2022/04/27 07:39:55;;;;;;;8.40;5.80;;;;;;101095.80;;;;107199;1274;64910;-30
2022/04/27 07:42:22;;;;;;;8.70;5.80;;;;;;101096.40;;;;107285;1274;64862;-26
2022/04/27 07:44:50;;;;;;;8.80;5.90;;;;;;101099.05;;;;107190;1274;66701;-26
2022/04/27 07:47:17;;;;;;;7.50;5.30;;;;;;101095.23;;;;107062;1274;64785;-26
2022/04/27 07:49:46;;;;;;;8.50;5.80;;;;;;101099.75;;;;107072;1274;64851;-38
2022/04/27 07:52:13;;;;;;;8.90;5.50;;;;;;101100.70;;;;107062;1274;64910;-29
2022/04/27 07:54:42;;;;;;;7.60;5.60;;;;;;101099.19;;;;107046;1273;64866;-30
2022/04/27 07:57:12;;;;;;;7.60;5.60;;;;;;101098.19;;;;107062;1274;66120;-26
2022/04/27 07:59:39;;;;;;;8.60;5.90;;;;;;101099.37;;;;107073;1274;64904;-25
2022/04/27 08:02:07;;;;;;;9.30;5.70;;;;;;101096.27;;;;107129;1274;64837;-28
2022/04/27 08:04:34;;;;;;;7.50;5.40;;;;;;101101.45;;;;107226;1274;64731;-27
2022/04/27 08:07:01;;;;;;;9.00;5.80;;;;;;101099.88;;;;107227;1273;64942;-40
2022/04/27 08:09:28;;;;;;;8.10;5.50;;;;;;101098.11;;;;107228;1274;67625;-29
2022/04/27 08:11:56;;;;;;;8.60;5.60;;;;;;101099.41;;;;107146;1274;64952;-27
2022/04/27 08:14:23;;;;;;;9.20;5.50;;;;;;101102.02;;;;107231;1274;65231;-27
2022/04/27 08:16:51;;;;;;;10.30;5.90;;;;;;101101.42;;;;107145;1274;64736;-28
2022/04/27 08:19:20;;;;;;;8.70;5.50;;;;;;101105.57;;;;107232;1274;64783;-32
2022/04/27 08:21:48;;;;;;;8.10;5.30;;;;;;101103.02;;;;107188;1274;66018;-27
2022/04/27 08:24:19;;;;;;;9.50;6.10;;;;;;101104.72;;;;107258;1274;64753;-27
2022/04/27 08:26:46;;;;;;;9.40;5.50;;;;;;101105.38;;;;107266;1274;64852;-31
2022/04/27 08:29:14;;;;;;;8.40;5.60;;;;;;101104.70;;;;107191;1274;64806;-31
2022/04/27 08:31:41;;;;;;;7.80;5.30;;;;;;101106.06;;;;107246;1273;64822;-28
2022/04/27 08:34:09;;;;;;;7.70;5.60;;;;;;101107.84;;;;107213;1274;66043;-28
2022/04/27 08:36:36;;;;;;;7.20;4.80;;;;;;101108.02;;;;107148;1274;64872;-58
2022/04/27 08:39:04;;;;;;;9.40;5.70;;;;;;101107.73;;;;107250;1274;64747;-26
2022/04/27 08:41:31;;;;;;;8.30;5.40;;;;;;101108.62;;;;107252;1273;64892;-28
2022/04/27 08:44:00;;;;;;;8.30;4.90;;;;;;101110.46;;;;107240;1274;64850;-28
2022/04/27 08:46:29;;;;;;;8.60;5.70;;;;;;101111.27;;;;107278;1274;65706;-30
2022/04/27 08:48:56;;;;;;;10.30;5.90;;;;;;101114.52;;;;107172;1274;64732;-30
2022/04/27 08:51:23;;;;;;;8.90;5.70;;;;;;101110.69;;;;107210;1274;64725;-35
2022/04/27 08:53:50;;;;;;;8.80;5.40;;;;;;101108.17;;;;107140;1274;64940;-31
2022/04/27 08:56:18;;;;;;;10.90;5.40;;;;;;101108.23;;;;107283;1274;64872;-30
2022/04/27 08:58:46;;;;;;;8.00;4.80;;;;;;101112.17;;;;107237;1274;64925;-31
2022/04/27 09:01:13;;;;;;;7.30;4.90;;;;;;101112.76;;;;107230;1274;64734;-31
2022/04/27 09:03:41;;;;;;;9.40;5.10;;;;;;101110.55;;;;107151;1273;64860;-31
2022/04/27 09:06:12;;;;;;;8.50;5.80;;;;;;101110.64;;;;107184;1274;64911;-30
2022/04/27 09:08:47;;;;;;;7.80;4.70;;;;;;101110.16;;;;107280;1274;64992;-28
2022/04/27 09:11:26;;;;;;;8.60;4.90;;;;;;101107.75;;;;107135;1274;67320;-31
2022/04/27 09:13:57;;;;;;;9.10;5.20;;;;;;101111.44;;;;107027;1274;64774;-31
2022/04/27 09:22:12;;;;;;;7.80;4.70;;;;;;101110.64;;;;107266;1274;64812;-25
2022/04/27 09:24:54;;;;;;;7.50;5.40;;;;;;101109.35;;;;107249;1274;65900;-27
2022/04/27 09:27:26;;;;;;;7.10;4.50;;;;;;101110.63;;;;107271;1274;64750;-25
2022/04/27 09:30:04;;;;;;;6.50;4.50;;;;;;101110.10;;;;107225;1274;64837;-26
2022/04/27 09:32:31;;;;;;;7.90;5.50;;;;;;101112.47;;;;107246;1274;64744;-28
2022/04/27 09:35:03;;;;;;;7.30;4.40;;;;;;101110.64;;;;107232;1274;64845;-29
2022/04/27 09:37:39;;;;;;;7.40;4.60;;;;;;101110.48;;;;107258;1274;66424;-26
2022/04/27 09:40:13;;;;;;;7.30;4.50;;;;;;101109.45;;;;107138;1274;65086;-26
2022/04/27 09:42:45;;;;;;;6.70;4.10;;;;;;101105.47;;;;107224;1274;64772;-26
2022/04/27 09:45:27;;;;;;;7.70;4.20;;;;;;101107.58;;;;107230;1274;64740;-25
2022/04/27 09:48:03;;;;;;;7.90;4.10;;;;;;101103.34;;;;107262;1274;64773;-28
2022/04/27 09:50:58;;;;;;;8.00;4.30;;;;;;101100.55;;;;107240;1274;67371;-26
2022/04/27 09:53:26;;;;;;;6.50;3.90;;;;;;101102.29;;;;107231;1273;64762;-25
2022/04/27 09:55:59;;;;;;;6.80;4.40;;;;;;101104.33;;;;107275;1274;64820;-26
2022/04/27 09:58:27;;;;;;;6.70;3.90;;;;;;101106.94;;;;107260;1274;64852;-26
2022/04/27 10:01:04;;;;;;;5.50;3.80;;;;;;101105.96;;;;107196;1274;64881;-29
2022/04/27 10:03:35;;;;;;;7.40;3.90;;;;;;101104.71;;;;107173;1274;65977;-31
2022/04/27 10:06:02;;;;;;;6.10;3.90;;;;;;101101.34;;;;107128;1274;64955;-31
2022/04/27 10:08:30;;;;;;;7.00;4.00;;;;;;101106.88;;;;107218;1274;64854;-31
2022/04/27 10:10:58;;;;;;;6.40;3.80;;;;;;101103.44;;;;107121;1274;65504;-25
2022/04/27 10:13:25;;;;;;;6.80;3.70;;;;;;101102.47;;;;107224;1274;65018;-26
2022/04/27 10:15:53;;;;;;;6.60;3.60;;;;;;101107.02;;;;107249;1274;65933;-25
2022/04/27 10:18:21;;;;;;;6.70;3.90;;;;;;101104.17;;;;107170;1274;64874;-25
2022/04/27 10:20:51;;;;;;;6.20;3.70;;;;;;101108.64;;;;107116;1274;64869;-25
2022/04/27 10:23:31;;;;;;;6.80;4.10;;;;;;101107.36;;;;107119;1274;64870;-27
2022/04/27 10:26:15;;;;;;;5.30;3.40;;;;;;101107.64;;;;107132;1273;64679;-26
2022/04/27 10:29:05;;;;;;;5.50;3.30;;;;;;101110.36;;;;107121;1274;67715;-27
2022/04/27 10:31:48;;;;;;;5.90;3.40;;;;;;101111.94;;;;106993;1276;64946;-31
2022/04/27 10:34:19;;;;;;;5.60;3.30;;;;;;101108.55;;;;107091;1274;64638;-28
2022/04/27 10:36:52;;;;;;;7.30;3.60;;;;;;101106.71;;;;107177;1274;64885;-27
2022/04/27 10:39:22;;;;;;;5.30;3.30;;;;;;101109.48;;;;107216;1274;64910;-27
2022/04/27 10:42:04;;;;;;;5.40;3.30;;;;;;101113.16;;;;107209;1274;67814;-26
2022/04/27 10:44:58;;;;;;;6.00;3.70;;;;;;101114.23;;;;107138;1274;64791;-27
2022/04/27 10:47:35;;;;;;;6.50;3.20;;;;;;101114.10;;;;107144;1273;64777;-27
2022/04/27 10:50:12;;;;;;;5.20;3.20;;;;;;101113.86;;;;107158;1273;64721;-26
2022/04/27 10:52:51;;;;;;;5.10;3.00;;;;;;101118.16;;;;107212;1273;64782;-26
2022/04/27 10:55:34;;;;;;;4.80;3.00;;;;;;101119.13;;;;107160;1273;67372;-27
2022/04/27 10:58:34;;;;;;;6.00;2.90;;;;;;101119.13;;;;107124;1273;64778;-31
2022/04/27 11:01:11;;;;;;;4.90;2.90;;;;;;101123.33;;;;107144;1274;64714;-28
2022/04/27 11:03:39;;;;;;;5.40;3.10;;;;;;101124.01;;;;107127;1274;64880;-27
2022/04/27 11:06:13;;;;;;;5.30;3.10;;;;;;101123.16;;;;107173;1274;64681;-34
2022/04/27 11:09:08;;;;;;;5.40;3.20;;;;;;101123.84;;;;107146;1273;67755;-46
2022/04/27 11:11:56;;;;;;;5.20;2.90;;;;;;101122.23;;;;107162;1273;64865;-27
2022/04/27 11:14:29;;;;;;;5.30;2.90;;;;;;101122.92;;;;107198;1274;64840;-28
2022/04/27 11:16:56;;;;;;;5.40;2.70;;;;;;101120.36;;;;107156;1274;65425;-38
2022/04/27 11:19:38;;;;;;;4.60;2.60;;;;;;101119.09;;;;107261;1273;64718;-29
2022/04/27 11:22:16;;;;;;;5.30;2.80;;;;;;101120.67;;;;107284;1274;65878;-30
2022/04/27 11:24:47;;;;;;;5.10;2.90;;;;;;101119.06;;;;107268;1274;64921;-32
2022/04/27 11:27:26;;;;;;;5.30;3.10;;;;;;101116.50;;;;107295;1274;64804;-27
2022/04/27 11:29:54;;;;;;;5.10;2.90;;;;;;101116.98;;;;107228;1274;65543;-25
2022/04/27 11:32:22;;;;;;;5.40;2.80;;;;;;101119.41;;;;107112;1275;64874;-27
2022/04/27 11:34:49;;;;;;;4.50;2.80;;;;;;101116.39;;;;107279;1274;65513;-29
2022/04/27 11:37:19;;;;;;;5.10;2.60;;;;;;101113.23;;;;107226;1274;64879;-32
2022/04/27 11:39:47;;;;;;;4.60;2.80;;;;;;101115.61;;;;107253;1272;64905;-31
2022/04/27 11:42:16;;;;;;;5.00;2.70;;;;;;101119.14;;;;107279;1273;64777;-29
2022/04/27 11:44:53;;;;;;;4.60;2.70;;;;;;101118.45;;;;107280;1274;65542;-30
2022/04/27 11:47:32;;;;;;;5.10;2.70;;;;;;101119.98;;;;107281;1274;66060;-30
2022/04/27 11:50:02;;;;;;;5.00;2.90;;;;;;101119.09;;;;107211;1274;65610;-29
2022/04/27 11:52:39;;;;;;;4.30;2.50;;;;;;101119.67;;;;107252;1273;64708;-34
2022/04/27 11:55:12;;;;;;;4.70;3.00;;;;;;101119.44;;;;107260;1274;64863;-34
2022/04/27 11:57:41;;;;;;;4.30;2.80;;;;;;101120.22;;;;107152;1274;64868;-34
2022/04/27 12:00:09;;;;;;;4.90;2.80;;;;;;101122.05;;;;107289;1274;65109;-34
2022/04/27 12:02:40;;;;;;;5.50;3.00;;;;;;101122.69;;;;107295;1274;64882;-30
2022/04/27 12:05:10;;;;;;;4.20;2.50;;;;;;101121.92;;;;107155;1274;64770;-29
2022/04/27 12:07:38;;;;;;;5.20;2.80;;;;;;101118.20;;;;107293;1274;64705;-30
2022/04/27 12:10:10;;;;;;;4.40;2.60;;;;;;101120.73;;;;107247;1274;64895;-29
2022/04/27 12:12:38;;;;;;;4.90;2.80;;;;;;101121.55;;;;107258;1274;65998;-28
2022/04/27 12:15:12;;;;;;;4.40;2.50;;;;;;101122.14;;;;107029;1274;315625;-28
2022/04/27 12:17:50;;;;;;;5.40;2.70;;;;;;101118.50;;;;107151;1274;64597;-30
2022/04/27 12:20:40;;;;;;;4.50;2.60;;;;;;101121.76;;;;107180;1274;64733;-29
2022/04/27 12:23:16;;;;;;;4.20;2.50;;;;;;101121.52;;;;107152;1273;64834;-33
2022/04/27 12:25:57;;;;;;;4.50;2.40;;;;;;101117.77;;;;107193;1274;68316;-30
2022/04/27 12:28:29;;;;;;;4.90;3.20;;;;;;101114.98;;;;107260;1274;64804;-29
2022/04/27 12:31:05;;;;;;;5.70;2.40;;;;;;101113.19;;;;107140;1273;64753;-29
2022/04/27 12:33:36;;;;;;;5.40;2.80;;;;;;101114.16;;;;107194;1274;64890;-29
2022/04/27 12:39:04;;;;;;;4.50;2.50;;;;;;101108.36;;;;107162;1273;66154;-30
2022/04/27 12:41:44;;;;;;;4.80;2.40;;;;;;101106.29;;;;107181;1274;64852;-28
2022/04/27 12:44:20;;;;;;;4.20;2.30;;;;;;101105.13;;;;107107;1274;64959;-28
2022/04/27 12:47:04;;;;;;;5.00;2.60;;;;;;101103.85;;;;107153;1274;64869;-31
2022/04/27 12:49:32;;;;;;;4.80;2.60;;;;;;101102.86;;;;107208;1274;65178;-33
2022/04/27 12:52:25;;;;;;;4.80;2.70;;;;;;101100.40;;;;107143;1274;65205;-29
2022/04/27 12:55:07;;;;;;;4.10;2.40;;;;;;101101.20;;;;107161;1273;64952;-30
2022/04/27 12:57:55;;;;;;;5.20;2.70;;;;;;101099.53;;;;107148;1273;65072;-28
2022/04/27 13:00:43;;;;;;;4.80;2.40;;;;;;101095.92;;;;107162;1274;64706;-29
2022/04/27 13:03:12;;;;;;;4.40;2.30;;;;;;101095.56;;;;107196;1274;64859;-35
2022/04/27 13:05:40;;;;;;;3.70;2.20;;;;;;101093.48;;;;107154;1274;66431;-32
2022/04/27 13:08:09;;;;;;;5.50;2.40;;;;;;101090.05;;;;107214;1274;65044;-30
2022/04/27 13:13:29;;;;;;;5.20;2.10;;;;;;101084.20;;;;107055;1274;64805;-38
2022/04/27 13:15:58;;;;;;;4.30;2.30;;;;;;101083.05;;;;107055;1274;65295;-33
2022/04/27 13:18:25;;;;;;;5.10;2.20;;;;;;101083.39;;;;107205;1274;64918;-38
2022/04/27 13:20:53;;;;;;;3.70;2.20;;;;;;101082.80;;;;107190;1274;64744;-41
2022/04/27 13:23:21;;;;;;;3.60;2.10;;;;;;101084.51;;;;107125;1274;64852;-36
2022/04/27 13:25:49;;;;;;;4.90;2.30;;;;;;101084.38;;;;107175;1274;66088;-33
2022/04/27 13:28:16;;;;;;;4.40;2.50;;;;;;101083.04;;;;107245;1273;65861;-37